DAL5717 KRDU-KIAD
Flight info
| Callsign | DAL5717 |
|---|---|
| Flight time | 0h 37m |
| Altitude | 27000 |
| Route | OXFRD5 CARML DORRN CAVLR6 |
| Aircraft | A320/M-SDE3FGHIRWY/LB1 |
Departure
| Time | 2026-05-07 00:49 |
|---|---|
| Airport | Raleigh-Durham International Airport (KRDU) |
Arrival
| Time | 2026-05-07 01:27 |
|---|---|
| Airport | Washington Dulles International Airport (KIAD) |
| Time | Latitude | Longitude | Altitude | Speed | Heading |
|---|---|---|---|---|---|
| 2026-05-07 00:09 | 35.87581 | -78.79628 | 392 ft | 0 kts | 135° |
| 2026-05-07 00:28 | 35.87595 | -78.79645 | 392 ft | 4 kts | 126° |
| 2026-05-07 00:28 | 35.87608 | -78.79674 | 392 ft | 4 kts | 102° |
| 2026-05-07 00:28 | 35.87606 | -78.79703 | 392 ft | 4 kts | 51° |
| 2026-05-07 00:29 | 35.87604 | -78.79707 | 392 ft | 0 kts | 45° |
| 2026-05-07 00:34 | 35.87608 | -78.79702 | 392 ft | 3 kts | 44° |
| 2026-05-07 00:35 | 35.87622 | -78.79685 | 392 ft | 6 kts | 45° |
| 2026-05-07 00:35 | 35.87664 | -78.79633 | 392 ft | 15 kts | 45° |
| 2026-05-07 00:35 | 35.87745 | -78.79533 | 392 ft | 14 kts | 45° |
| 2026-05-07 00:35 | 35.87818 | -78.79444 | 392 ft | 14 kts | 45° |
| 2026-05-07 00:36 | 35.87905 | -78.79336 | 392 ft | 22 kts | 45° |
| 2026-05-07 00:36 | 35.88008 | -78.79208 | 392 ft | 19 kts | 45° |
| 2026-05-07 00:36 | 35.88097 | -78.79099 | 392 ft | 17 kts | 45° |
| 2026-05-07 00:36 | 35.88189 | -78.78980 | 392 ft | 28 kts | 45° |
| 2026-05-07 00:37 | 35.88297 | -78.78848 | 392 ft | 19 kts | 45° |
| 2026-05-07 00:37 | 35.88393 | -78.78728 | 392 ft | 20 kts | 46° |
| 2026-05-07 00:37 | 35.88476 | -78.78625 | 392 ft | 16 kts | 45° |
| 2026-05-07 00:37 | 35.88537 | -78.78550 | 392 ft | 9 kts | 44° |
| 2026-05-07 00:38 | 35.88590 | -78.78485 | 392 ft | 14 kts | 45° |
| 2026-05-07 00:38 | 35.88678 | -78.78377 | 392 ft | 15 kts | 45° |
| 2026-05-07 00:38 | 35.88747 | -78.78290 | 392 ft | 16 kts | 45° |
| 2026-05-07 00:38 | 35.88810 | -78.78214 | 392 ft | 0 kts | 45° |
| 2026-05-07 00:39 | 35.88815 | -78.78208 | 392 ft | 6 kts | 45° |
| 2026-05-07 00:39 | 35.88820 | -78.78201 | 392 ft | 0 kts | 45° |
| 2026-05-07 00:40 | 35.88828 | -78.78191 | 392 ft | 6 kts | 45° |
| 2026-05-07 00:40 | 35.88902 | -78.78100 | 392 ft | 21 kts | 45° |
| 2026-05-07 00:40 | 35.88972 | -78.78002 | 392 ft | 16 kts | 61° |
| 2026-05-07 00:41 | 35.89025 | -78.77871 | 392 ft | 15 kts | 50° |
| 2026-05-07 00:41 | 35.89094 | -78.77783 | 392 ft | 13 kts | 44° |
| 2026-05-07 00:41 | 35.89155 | -78.77707 | 392 ft | 12 kts | 44° |
| 2026-05-07 00:41 | 35.89188 | -78.77666 | 392 ft | 0 kts | 45° |
| 2026-05-07 00:43 | 35.89196 | -78.77656 | 392 ft | 6 kts | 45° |
| 2026-05-07 00:43 | 35.89238 | -78.77651 | 392 ft | 0 kts | 326° |
| 2026-05-07 00:45 | 35.89265 | -78.77683 | 392 ft | 15 kts | 315° |
| 2026-05-07 00:45 | 35.89296 | -78.77721 | 392 ft | 0 kts | 316° |
| 2026-05-07 00:48 | 35.89304 | -78.77730 | 392 ft | 6 kts | 316° |
| 2026-05-07 00:48 | 35.89357 | -78.77808 | 393 ft | 12 kts | 281° |
| 2026-05-07 00:48 | 35.89266 | -78.77950 | 392 ft | 45 kts | 225° |
| 2026-05-07 00:49 | 35.88885 | -78.78421 | 393 ft | 110 kts | 224° |
| 2026-05-07 00:49 | 35.88197 | -78.79267 | 399 ft | 165 kts | 225° |
| 2026-05-07 00:49 | 35.87357 | -78.80298 | 909 ft | 174 kts | 225° |
| 2026-05-07 00:49 | 35.86492 | -78.81359 | 1672 ft | 177 kts | 225° |
| 2026-05-07 00:50 | 35.85625 | -78.82417 | 2388 ft | 176 kts | 225° |
| 2026-05-07 00:50 | 35.84718 | -78.83537 | 2792 ft | 194 kts | 226° |
| 2026-05-07 00:50 | 35.83709 | -78.84750 | 3300 ft | 211 kts | 223° |
| 2026-05-07 00:50 | 35.82626 | -78.86059 | 3846 ft | 222 kts | 238° |
| 2026-05-07 00:51 | 35.82077 | -78.87830 | 4515 ft | 232 kts | 263° |
| 2026-05-07 00:51 | 35.82333 | -78.89824 | 5253 ft | 244 kts | 292° |
| 2026-05-07 00:51 | 35.83390 | -78.91531 | 5815 ft | 258 kts | 315° |
| 2026-05-07 00:51 | 35.85019 | -78.92558 | 5969 ft | 272 kts | 341° |
| 2026-05-07 00:52 | 35.86926 | -78.92843 | 6008 ft | 278 kts | 350° |
| 2026-05-07 00:52 | 35.88832 | -78.92983 | 6220 ft | 277 kts | 351° |
| 2026-05-07 00:52 | 35.90779 | -78.93108 | 6939 ft | 280 kts | 351° |
| 2026-05-07 00:52 | 35.92735 | -78.93232 | 7741 ft | 284 kts | 351° |
| 2026-05-07 00:53 | 35.94709 | -78.93254 | 8491 ft | 294 kts | 2° |
| 2026-05-07 00:53 | 35.96680 | -78.92421 | 9295 ft | 308 kts | 26° |
| 2026-05-07 00:53 | 35.98525 | -78.90994 | 9986 ft | 316 kts | 28° |
| 2026-05-07 00:53 | 36.00412 | -78.89490 | 10480 ft | 330 kts | 28° |
| 2026-05-07 00:54 | 36.02390 | -78.87907 | 10844 ft | 347 kts | 28° |
| 2026-05-07 00:54 | 36.04437 | -78.86267 | 11184 ft | 363 kts | 28° |
| 2026-05-07 00:54 | 36.06601 | -78.84531 | 11645 ft | 374 kts | 28° |
| 2026-05-07 00:54 | 36.08800 | -78.82763 | 11934 ft | 376 kts | 28° |
| 2026-05-07 00:55 | 36.10974 | -78.81015 | 12003 ft | 376 kts | 28° |
| 2026-05-07 00:55 | 36.13164 | -78.79257 | 12109 ft | 376 kts | 28° |
| 2026-05-07 00:55 | 36.15375 | -78.77486 | 12710 ft | 380 kts | 28° |
| 2026-05-07 00:55 | 36.17603 | -78.75706 | 13440 ft | 382 kts | 28° |
| 2026-05-07 00:56 | 36.19849 | -78.73910 | 14112 ft | 385 kts | 28° |
| 2026-05-07 00:56 | 36.22118 | -78.72092 | 14708 ft | 389 kts | 28° |
| 2026-05-07 00:56 | 36.24372 | -78.70281 | 15287 ft | 393 kts | 27° |
| 2026-05-07 00:56 | 36.26673 | -78.68432 | 15863 ft | 396 kts | 27° |
| 2026-05-07 00:57 | 36.29005 | -78.66555 | 16445 ft | 400 kts | 27° |
| 2026-05-07 00:57 | 36.31353 | -78.64665 | 17007 ft | 404 kts | 27° |
| 2026-05-07 00:57 | 36.33736 | -78.62749 | 17576 ft | 408 kts | 26° |
| 2026-05-07 00:57 | 36.36224 | -78.61103 | 18138 ft | 404 kts | 15° |
| 2026-05-07 00:58 | 36.38839 | -78.60021 | 18639 ft | 400 kts | 8° |
| 2026-05-07 00:58 | 36.41538 | -78.59071 | 19137 ft | 404 kts | 8° |
| 2026-05-07 00:58 | 36.44262 | -78.58113 | 19639 ft | 407 kts | 8° |
| 2026-05-07 00:58 | 36.47002 | -78.57141 | 20151 ft | 410 kts | 8° |
| 2026-05-07 00:59 | 36.52524 | -78.55163 | 21149 ft | 417 kts | 8° |
| 2026-05-07 00:59 | 36.55168 | -78.54210 | 21612 ft | 420 kts | 8° |
| 2026-05-07 00:59 | 36.57989 | -78.53192 | 22084 ft | 423 kts | 8° |
| 2026-05-07 01:00 | 36.60828 | -78.52167 | 22553 ft | 426 kts | 8° |
| 2026-05-07 01:00 | 36.63692 | -78.51135 | 23010 ft | 430 kts | 8° |
| 2026-05-07 01:00 | 36.66575 | -78.50102 | 23465 ft | 433 kts | 7° |
| 2026-05-07 01:00 | 36.69340 | -78.49112 | 23810 ft | 436 kts | 8° |
| 2026-05-07 01:01 | 36.72286 | -78.48049 | 24160 ft | 440 kts | 9° |
| 2026-05-07 01:01 | 36.75175 | -78.46613 | 24510 ft | 453 kts | 20° |
| 2026-05-07 01:01 | 36.77907 | -78.44553 | 24842 ft | 462 kts | 26° |
| 2026-05-07 01:01 | 36.80378 | -78.42530 | 25132 ft | 465 kts | 26° |
| 2026-05-07 01:02 | 36.83094 | -78.40319 | 25445 ft | 467 kts | 26° |
| 2026-05-07 01:02 | 36.85841 | -78.38095 | 25764 ft | 470 kts | 26° |
| 2026-05-07 01:02 | 36.88574 | -78.35880 | 26061 ft | 473 kts | 26° |
| 2026-05-07 01:02 | 36.91350 | -78.33629 | 26356 ft | 476 kts | 26° |
| 2026-05-07 01:03 | 36.94144 | -78.31360 | 26653 ft | 479 kts | 26° |
| 2026-05-07 01:03 | 36.96952 | -78.29077 | 26887 ft | 482 kts | 27° |
| 2026-05-07 01:03 | 36.99706 | -78.26829 | 26933 ft | 472 kts | 27° |
| 2026-05-07 01:03 | 37.02447 | -78.24583 | 26932 ft | 470 kts | 26° |
| 2026-05-07 01:04 | 37.05196 | -78.22335 | 26935 ft | 471 kts | 26° |
| 2026-05-07 01:04 | 37.07940 | -78.20092 | 26929 ft | 471 kts | 26° |
| 2026-05-07 01:04 | 37.10701 | -78.17839 | 26931 ft | 472 kts | 26° |
| 2026-05-07 01:04 | 37.13422 | -78.15615 | 26929 ft | 472 kts | 26° |
| 2026-05-07 01:05 | 37.16181 | -78.13356 | 26931 ft | 473 kts | 26° |
| 2026-05-07 01:05 | 37.18940 | -78.11092 | 26930 ft | 473 kts | 26° |
| 2026-05-07 01:05 | 37.21710 | -78.08821 | 26926 ft | 474 kts | 26° |
| 2026-05-07 01:05 | 37.24435 | -78.06582 | 26923 ft | 475 kts | 26° |
| 2026-05-07 01:06 | 37.27202 | -78.04311 | 26923 ft | 475 kts | 25° |
| 2026-05-07 01:06 | 37.29982 | -78.02029 | 26925 ft | 475 kts | 25° |
| 2026-05-07 01:06 | 37.32748 | -77.99753 | 26926 ft | 476 kts | 25° |
| 2026-05-07 01:06 | 37.35512 | -77.97570 | 26911 ft | 470 kts | 20° |
| 2026-05-07 01:07 | 37.38427 | -77.95914 | 26680 ft | 452 kts | 10° |
| 2026-05-07 01:07 | 37.41363 | -77.94600 | 26218 ft | 446 kts | 10° |
| 2026-05-07 01:07 | 37.44281 | -77.93303 | 25678 ft | 442 kts | 9° |
| 2026-05-07 01:07 | 37.47175 | -77.92024 | 25168 ft | 438 kts | 9° |
| 2026-05-07 01:08 | 37.50051 | -77.90752 | 24652 ft | 435 kts | 9° |
| 2026-05-07 01:08 | 37.52902 | -77.89488 | 24143 ft | 433 kts | 10° |
| 2026-05-07 01:08 | 37.55681 | -77.88137 | 23648 ft | 433 kts | 13° |
| 2026-05-07 01:08 | 37.58458 | -77.86620 | 23114 ft | 432 kts | 15° |
| 2026-05-07 01:09 | 37.61176 | -77.85032 | 22636 ft | 428 kts | 16° |
| 2026-05-07 01:09 | 37.63823 | -77.83443 | 22170 ft | 424 kts | 16° |
| 2026-05-07 01:09 | 37.66486 | -77.81845 | 21690 ft | 420 kts | 16° |
| 2026-05-07 01:09 | 37.69136 | -77.80302 | 21130 ft | 418 kts | 15° |
| 2026-05-07 01:10 | 37.71791 | -77.78809 | 20599 ft | 415 kts | 14° |
| 2026-05-07 01:10 | 37.74436 | -77.77357 | 20064 ft | 414 kts | 14° |
| 2026-05-07 01:10 | 37.77042 | -77.75938 | 19542 ft | 412 kts | 14° |
| 2026-05-07 01:10 | 37.79678 | -77.74501 | 19012 ft | 411 kts | 14° |
| 2026-05-07 01:11 | 37.82305 | -77.73056 | 18484 ft | 410 kts | 15° |
| 2026-05-07 01:11 | 37.84892 | -77.71617 | 17928 ft | 410 kts | 15° |
| 2026-05-07 01:11 | 37.87489 | -77.70164 | 17449 ft | 405 kts | 16° |
| 2026-05-07 01:11 | 37.90048 | -77.68725 | 16954 ft | 396 kts | 16° |
| 2026-05-07 01:12 | 37.92546 | -77.67322 | 16460 ft | 391 kts | 16° |
| 2026-05-07 01:12 | 37.95033 | -77.65936 | 15953 ft | 389 kts | 16° |
| 2026-05-07 01:12 | 37.97477 | -77.64578 | 15459 ft | 388 kts | 17° |
| 2026-05-07 01:12 | 37.99949 | -77.63200 | 15083 ft | 383 kts | 17° |
| 2026-05-07 01:13 | 38.02342 | -77.61858 | 14958 ft | 369 kts | 17° |
| 2026-05-07 01:13 | 38.04622 | -77.60571 | 14752 ft | 348 kts | 17° |
| 2026-05-07 01:13 | 38.06777 | -77.59328 | 14257 ft | 343 kts | 19° |
| 2026-05-07 01:13 | 38.08933 | -77.58003 | 13903 ft | 341 kts | 20° |
| 2026-05-07 01:14 | 38.11037 | -77.56658 | 13360 ft | 339 kts | 21° |
| 2026-05-07 01:14 | 38.13099 | -77.55324 | 12838 ft | 334 kts | 21° |
| 2026-05-07 01:14 | 38.15171 | -77.53979 | 12150 ft | 332 kts | 21° |
| 2026-05-07 01:14 | 38.17215 | -77.52654 | 11488 ft | 328 kts | 21° |
| 2026-05-07 01:15 | 38.19249 | -77.51342 | 10978 ft | 328 kts | 21° |
| 2026-05-07 01:15 | 38.21255 | -77.50056 | 10606 ft | 326 kts | 21° |
| 2026-05-07 01:15 | 38.23281 | -77.48770 | 10270 ft | 322 kts | 19° |
| 2026-05-07 01:15 | 38.25389 | -77.47829 | 9798 ft | 318 kts | 9° |
| 2026-05-07 01:16 | 38.27515 | -77.47101 | 9547 ft | 311 kts | 9° |
| 2026-05-07 01:16 | 38.29582 | -77.46533 | 9195 ft | 302 kts | 358° |
| 2026-05-07 01:16 | 38.31659 | -77.46385 | 8915 ft | 297 kts | 356° |
| 2026-05-07 01:16 | 38.33727 | -77.46269 | 8799 ft | 297 kts | 355° |
| 2026-05-07 01:17 | 38.35804 | -77.46157 | 8671 ft | 297 kts | 355° |
| 2026-05-07 01:17 | 38.37843 | -77.46047 | 8549 ft | 296 kts | 355° |
| 2026-05-07 01:17 | 38.39905 | -77.45938 | 8422 ft | 295 kts | 355° |
| 2026-05-07 01:17 | 38.41956 | -77.45829 | 8302 ft | 294 kts | 355° |
| 2026-05-07 01:18 | 38.44002 | -77.45720 | 8176 ft | 294 kts | 355° |
| 2026-05-07 01:18 | 38.46047 | -77.45610 | 8053 ft | 293 kts | 355° |
| 2026-05-07 01:18 | 38.48050 | -77.45503 | 7927 ft | 292 kts | 355° |
| 2026-05-07 01:18 | 38.50074 | -77.45398 | 7810 ft | 291 kts | 355° |
| 2026-05-07 01:19 | 38.52096 | -77.45292 | 7701 ft | 287 kts | 356° |
| 2026-05-07 01:19 | 38.54049 | -77.45180 | 7576 ft | 273 kts | 356° |
| 2026-05-07 01:19 | 38.55914 | -77.45071 | 7361 ft | 265 kts | 356° |
| 2026-05-07 01:19 | 38.57714 | -77.44970 | 7051 ft | 260 kts | 355° |
| 2026-05-07 01:20 | 38.59509 | -77.44873 | 6744 ft | 256 kts | 356° |
| 2026-05-07 01:20 | 38.61282 | -77.44778 | 6438 ft | 253 kts | 356° |
| 2026-05-07 01:20 | 38.63032 | -77.44685 | 6122 ft | 250 kts | 355° |
| 2026-05-07 01:20 | 38.64760 | -77.44585 | 5799 ft | 248 kts | 359° |
| 2026-05-07 01:21 | 38.66465 | -77.44176 | 5473 ft | 248 kts | 4° |
| 2026-05-07 01:21 | 38.68163 | -77.43987 | 5121 ft | 243 kts | 356° |
| 2026-05-07 01:21 | 38.69830 | -77.43966 | 4703 ft | 240 kts | 355° |
| 2026-05-07 01:21 | 38.71472 | -77.43952 | 4358 ft | 230 kts | 357° |
| 2026-05-07 01:22 | 38.73042 | -77.43931 | 4071 ft | 219 kts | 356° |
| 2026-05-07 01:22 | 38.74530 | -77.43908 | 3785 ft | 209 kts | 357° |
| 2026-05-07 01:22 | 38.75943 | -77.43888 | 3511 ft | 204 kts | 357° |
| 2026-05-07 01:22 | 38.77361 | -77.43868 | 3246 ft | 202 kts | 357° |
| 2026-05-07 01:23 | 38.78760 | -77.43847 | 2980 ft | 198 kts | 358° |
| 2026-05-07 01:23 | 38.80098 | -77.43827 | 2733 ft | 186 kts | 358° |
| 2026-05-07 01:23 | 38.81331 | -77.43808 | 2491 ft | 172 kts | 358° |
| 2026-05-07 01:23 | 38.82476 | -77.43790 | 2272 ft | 156 kts | 359° |
| 2026-05-07 01:24 | 38.83519 | -77.43775 | 2076 ft | 143 kts | 359° |
| 2026-05-07 01:24 | 38.84500 | -77.43761 | 1885 ft | 142 kts | 358° |
| 2026-05-07 01:24 | 38.85472 | -77.43747 | 1700 ft | 140 kts | 358° |
| 2026-05-07 01:24 | 38.86446 | -77.43733 | 1515 ft | 141 kts | 358° |
| 2026-05-07 01:25 | 38.87425 | -77.43720 | 1319 ft | 141 kts | 360° |
| 2026-05-07 01:25 | 38.88402 | -77.43702 | 1134 ft | 141 kts | 359° |
| 2026-05-07 01:25 | 38.89390 | -77.43687 | 914 ft | 144 kts | 358° |
| 2026-05-07 01:25 | 38.90383 | -77.43676 | 770 ft | 142 kts | 357° |
| 2026-05-07 01:26 | 38.91348 | -77.43650 | 574 ft | 141 kts | 356° |
| 2026-05-07 01:26 | 38.92327 | -77.43641 | 379 ft | 138 kts | 357° |
| 2026-05-07 01:26 | 38.93246 | -77.43626 | 311 ft | 121 kts | 358° |
| 2026-05-07 01:26 | 38.93941 | -77.43626 | 304 ft | 66 kts | 359° |
| 2026-05-07 01:27 | 38.94290 | -77.43621 | 301 ft | 41 kts | 355° |
| 2026-05-07 01:27 | 38.94509 | -77.43721 | 302 ft | 29 kts | 330° |
| 2026-05-07 01:27 | 38.94569 | -77.43765 | 301 ft | 0 kts | 329° |
| 2026-05-07 01:28 | 38.94571 | -77.43767 | 301 ft | 0 kts | 329° |
| 2026-05-07 01:28 | 38.94598 | -77.43787 | 303 ft | 11 kts | 329° |
| 2026-05-07 01:28 | 38.94667 | -77.43831 | 301 ft | 3 kts | 327° |
| 2026-05-07 01:28 | 38.94658 | -77.43861 | 302 ft | 13 kts | 238° |
| 2026-05-07 01:29 | 38.94651 | -77.44020 | 302 ft | 16 kts | 269° |
| 2026-05-07 01:29 | 38.94652 | -77.44176 | 304 ft | 18 kts | 271° |
| 2026-05-07 01:29 | 38.94653 | -77.44346 | 301 ft | 20 kts | 271° |
| 2026-05-07 01:29 | 38.94654 | -77.44508 | 300 ft | 14 kts | 270° |
| 2026-05-07 01:30 | 38.94656 | -77.44622 | 300 ft | 13 kts | 271° |
| 2026-05-07 01:30 | 38.94658 | -77.44771 | 300 ft | 17 kts | 270° |
| 2026-05-07 01:30 | 38.94659 | -77.44899 | 301 ft | 11 kts | 269° |
| 2026-05-07 01:30 | 38.94613 | -77.44947 | 301 ft | 7 kts | 187° |
| 2026-05-07 01:31 | 38.94590 | -77.44951 | 301 ft | 2 kts | 187° |
| 2026-05-07 01:31 | 38.94577 | -77.44953 | 302 ft | 4 kts | 187° |